QFA14 YSSY-YMML
Flight info
| Callsign | QFA14 |
|---|---|
| Flight time | 1h 28m |
| Altitude | 40000 |
| Route | WOL2/34L WOL H65 LEECE Q29 ML |
| Aircraft | A35K/H-SDE2E3GHIJ3J4J5LM1ORWXY/LB1D1 |
Departure
| Time | 2026-05-04 09:25 |
|---|---|
| Airport | Sydney Kingsford Smith International Airport (YSSY) |
Arrival
| Time | 2026-05-04 10:54 |
|---|---|
| Airport | Melbourne Airport (YMML) |
| Time | Latitude | Longitude | Altitude | Speed | Heading |
|---|---|---|---|---|---|
| 2026-05-04 08:50 | -33.93833 | 151.16831 | 27 ft | 0 kts | 70° |
| 2026-05-04 09:01 | -33.93818 | 151.16734 | 26 ft | 0 kts | 164° |
| 2026-05-04 09:05 | -33.93842 | 151.16743 | 26 ft | 7 kts | 164° |
| 2026-05-04 09:05 | -33.93923 | 151.16770 | 27 ft | 17 kts | 164° |
| 2026-05-04 09:05 | -33.94055 | 151.16814 | 27 ft | 22 kts | 166° |
| 2026-05-04 09:05 | -33.94218 | 151.16859 | 28 ft | 26 kts | 169° |
| 2026-05-04 09:06 | -33.94345 | 151.16895 | 29 ft | 12 kts | 165° |
| 2026-05-04 09:07 | -33.94341 | 151.17322 | 31 ft | 1 kts | 158° |
| 2026-05-04 09:08 | -33.94358 | 151.17326 | 31 ft | 5 kts | 167° |
| 2026-05-04 09:08 | -33.94406 | 151.17337 | 32 ft | 10 kts | 168° |
| 2026-05-04 09:08 | -33.94495 | 151.17360 | 32 ft | 16 kts | 167° |
| 2026-05-04 09:08 | -33.94623 | 151.17394 | 32 ft | 22 kts | 167° |
| 2026-05-04 09:09 | -33.94792 | 151.17439 | 29 ft | 28 kts | 167° |
| 2026-05-04 09:09 | -33.95002 | 151.17495 | 29 ft | 33 kts | 167° |
| 2026-05-04 09:09 | -33.95240 | 151.17557 | 25 ft | 37 kts | 167° |
| 2026-05-04 09:09 | -33.95500 | 151.17624 | 26 ft | 39 kts | 168° |
| 2026-05-04 09:10 | -33.95770 | 151.17692 | 30 ft | 40 kts | 167° |
| 2026-05-04 09:10 | -33.96052 | 151.17766 | 30 ft | 42 kts | 167° |
| 2026-05-04 09:10 | -33.96260 | 151.17820 | 28 ft | 18 kts | 167° |
| 2026-05-04 09:10 | -33.96352 | 151.17844 | 29 ft | 16 kts | 167° |
| 2026-05-04 09:11 | -33.96374 | 151.17852 | 29 ft | 0 kts | 164° |
| 2026-05-04 09:22 | -33.96394 | 151.17860 | 30 ft | 8 kts | 158° |
| 2026-05-04 09:22 | -33.96427 | 151.17930 | 30 ft | 13 kts | 93° |
| 2026-05-04 09:22 | -33.96414 | 151.18031 | 30 ft | 6 kts | 52° |
| 2026-05-04 09:23 | -33.96351 | 151.18044 | 30 ft | 15 kts | 351° |
| 2026-05-04 09:23 | -33.96327 | 151.18038 | 30 ft | 0 kts | 348° |
| 2026-05-04 09:25 | -33.90303 | 151.13967 | 3378 ft | 207 kts | 296° |
| 2026-05-04 09:25 | -33.89760 | 151.12356 | 4106 ft | 209 kts | 302° |
| 2026-05-04 09:26 | -33.89088 | 151.10798 | 4691 ft | 211 kts | 305° |
| 2026-05-04 09:26 | -33.88336 | 151.09285 | 4958 ft | 210 kts | 307° |
| 2026-05-04 09:26 | -33.87535 | 151.07793 | 5275 ft | 215 kts | 308° |
| 2026-05-04 09:26 | -33.86683 | 151.06277 | 5918 ft | 223 kts | 308° |
| 2026-05-04 09:27 | -33.85797 | 151.04731 | 6712 ft | 225 kts | 309° |
| 2026-05-04 09:27 | -33.84935 | 151.03149 | 7530 ft | 230 kts | 304° |
| 2026-05-04 09:27 | -33.84341 | 151.01282 | 8119 ft | 251 kts | 286° |
| 2026-05-04 09:27 | -33.84088 | 150.99166 | 8997 ft | 258 kts | 284° |
| 2026-05-04 09:28 | -33.83833 | 150.97009 | 9943 ft | 264 kts | 283° |
| 2026-05-04 09:28 | -33.83752 | 150.94746 | 10641 ft | 280 kts | 273° |
| 2026-05-04 09:28 | -33.84191 | 150.92388 | 11299 ft | 303 kts | 255° |
| 2026-05-04 09:28 | -33.85406 | 150.90155 | 11583 ft | 341 kts | 232° |
| 2026-05-04 09:29 | -33.87453 | 150.88466 | 11893 ft | 374 kts | 209° |
| 2026-05-04 09:29 | -33.90041 | 150.87718 | 12537 ft | 393 kts | 188° |
| 2026-05-04 09:29 | -33.92790 | 150.88045 | 13286 ft | 404 kts | 168° |
| 2026-05-04 09:29 | -33.95380 | 150.89426 | 14016 ft | 412 kts | 148° |
| 2026-05-04 09:30 | -33.97558 | 150.91686 | 14715 ft | 416 kts | 134° |
| 2026-05-04 09:30 | -33.99837 | 150.93847 | 15442 ft | 420 kts | 154° |
| 2026-05-04 09:30 | -34.02609 | 150.94897 | 16125 ft | 420 kts | 178° |
| 2026-05-04 09:30 | -34.05473 | 150.94788 | 16842 ft | 418 kts | 194° |
| 2026-05-04 09:31 | -34.08338 | 150.94122 | 17574 ft | 421 kts | 198° |
| 2026-05-04 09:31 | -34.11205 | 150.93305 | 18325 ft | 425 kts | 199° |
| 2026-05-04 09:31 | -34.14077 | 150.92432 | 18966 ft | 428 kts | 200° |
| 2026-05-04 09:31 | -34.16978 | 150.91522 | 19641 ft | 432 kts | 201° |
| 2026-05-04 09:32 | -34.19893 | 150.90592 | 20320 ft | 435 kts | 201° |
| 2026-05-04 09:32 | -34.22834 | 150.89646 | 20996 ft | 439 kts | 201° |
| 2026-05-04 09:34 | -34.44206 | 150.82703 | 25369 ft | 470 kts | 203° |
| 2026-05-04 09:34 | -34.47373 | 150.81669 | 25908 ft | 474 kts | 203° |
| 2026-05-04 09:34 | -34.50551 | 150.80561 | 26471 ft | 474 kts | 207° |
| 2026-05-04 09:34 | -34.53560 | 150.78998 | 27012 ft | 468 kts | 217° |
| 2026-05-04 09:35 | -34.56250 | 150.76839 | 27540 ft | 461 kts | 228° |
| 2026-05-04 09:35 | -34.58537 | 150.74162 | 28078 ft | 454 kts | 238° |
| 2026-05-04 09:35 | -34.60503 | 150.71169 | 28583 ft | 453 kts | 242° |
| 2026-05-04 09:35 | -34.62344 | 150.68108 | 29129 ft | 455 kts | 243° |
| 2026-05-04 09:37 | -34.74901 | 150.46800 | 32220 ft | 469 kts | 243° |
| 2026-05-04 09:37 | -34.76827 | 150.43591 | 32731 ft | 468 kts | 243° |
| 2026-05-04 09:38 | -34.78738 | 150.40412 | 33396 ft | 463 kts | 243° |
| 2026-05-04 09:38 | -34.80629 | 150.37259 | 34027 ft | 459 kts | 243° |
| 2026-05-04 09:38 | -34.82497 | 150.34132 | 34493 ft | 457 kts | 244° |
| 2026-05-04 09:38 | -34.84361 | 150.30999 | 34845 ft | 457 kts | 244° |
| 2026-05-04 09:39 | -34.86222 | 150.27869 | 35242 ft | 455 kts | 244° |
| 2026-05-04 09:39 | -34.88078 | 150.24745 | 35564 ft | 455 kts | 243° |
| 2026-05-04 09:39 | -34.89935 | 150.21619 | 35826 ft | 456 kts | 244° |
| 2026-05-04 09:39 | -34.91796 | 150.18490 | 36205 ft | 455 kts | 244° |
| 2026-05-04 09:40 | -34.93650 | 150.15373 | 36576 ft | 454 kts | 244° |
| 2026-05-04 09:40 | -34.95502 | 150.12258 | 36892 ft | 454 kts | 243° |
| 2026-05-04 09:40 | -34.97350 | 150.09148 | 37248 ft | 453 kts | 243° |
| 2026-05-04 09:40 | -34.99201 | 150.06027 | 37487 ft | 454 kts | 243° |
| 2026-05-04 09:41 | -35.01053 | 150.02903 | 37776 ft | 454 kts | 243° |
| 2026-05-04 09:42 | -35.13942 | 149.81086 | 39452 ft | 454 kts | 243° |
| 2026-05-04 09:43 | -35.15784 | 149.77948 | 39595 ft | 454 kts | 243° |
| 2026-05-04 09:43 | -35.17627 | 149.74809 | 39765 ft | 455 kts | 243° |
| 2026-05-04 09:43 | -35.19469 | 149.71670 | 39938 ft | 454 kts | 243° |
| 2026-05-04 09:43 | -35.21311 | 149.68528 | 40047 ft | 456 kts | 243° |
| 2026-05-04 09:44 | -35.25004 | 149.62223 | 40055 ft | 456 kts | 243° |
| 2026-05-04 09:46 | -35.39734 | 149.36942 | 40072 ft | 457 kts | 243° |
| 2026-05-04 09:46 | -35.43418 | 149.30591 | 40078 ft | 457 kts | 243° |
| 2026-05-04 09:47 | -35.47099 | 149.24235 | 40070 ft | 457 kts | 243° |
| 2026-05-04 09:49 | -35.61787 | 148.98752 | 40075 ft | 458 kts | 243° |
| 2026-05-04 09:51 | -35.74614 | 148.76343 | 40077 ft | 458 kts | 244° |
| 2026-05-04 09:51 | -35.78273 | 148.69921 | 40077 ft | 458 kts | 243° |
| 2026-05-04 09:52 | -35.81928 | 148.63496 | 40079 ft | 457 kts | 244° |
| 2026-05-04 09:52 | -35.85573 | 148.57077 | 40108 ft | 458 kts | 244° |
| 2026-05-04 09:53 | -35.89224 | 148.50645 | 40067 ft | 458 kts | 244° |
| 2026-05-04 09:53 | -35.92856 | 148.44208 | 40075 ft | 458 kts | 243° |
| 2026-05-04 09:54 | -35.96483 | 148.37747 | 40073 ft | 459 kts | 243° |
| 2026-05-04 09:54 | -36.00116 | 148.31267 | 40088 ft | 459 kts | 244° |
| 2026-05-04 09:55 | -36.03746 | 148.24787 | 40079 ft | 459 kts | 244° |
| 2026-05-04 09:55 | -36.06766 | 148.19391 | 40083 ft | 459 kts | 243° |
| 2026-05-04 09:56 | -36.10405 | 148.12878 | 40077 ft | 461 kts | 243° |
| 2026-05-04 09:56 | -36.14059 | 148.06345 | 40078 ft | 462 kts | 243° |
| 2026-05-04 09:57 | -36.17717 | 147.99800 | 40070 ft | 462 kts | 243° |
| 2026-05-04 09:57 | -36.21367 | 147.93254 | 40075 ft | 462 kts | 243° |
| 2026-05-04 09:58 | -36.25014 | 147.86702 | 40075 ft | 461 kts | 243° |
| 2026-05-04 09:58 | -36.28650 | 147.80158 | 40073 ft | 461 kts | 243° |
| 2026-05-04 10:00 | -36.43163 | 147.53872 | 40054 ft | 462 kts | 243° |
| 2026-05-04 10:04 | -36.68378 | 147.07671 | 40052 ft | 461 kts | 244° |
| 2026-05-04 10:04 | -36.70172 | 147.04361 | 39933 ft | 461 kts | 244° |
| 2026-05-04 10:04 | -36.71972 | 147.01046 | 39723 ft | 461 kts | 244° |
| 2026-05-04 10:04 | -36.73754 | 146.97760 | 39490 ft | 454 kts | 244° |
| 2026-05-04 10:05 | -36.75512 | 146.94513 | 38960 ft | 451 kts | 244° |
| 2026-05-04 10:05 | -36.77259 | 146.91277 | 38288 ft | 449 kts | 244° |
| 2026-05-04 10:05 | -36.78994 | 146.88055 | 37686 ft | 446 kts | 244° |
| 2026-05-04 10:05 | -36.80718 | 146.84849 | 37074 ft | 444 kts | 245° |
| 2026-05-04 10:06 | -36.82436 | 146.81652 | 36457 ft | 443 kts | 245° |
| 2026-05-04 10:06 | -36.84148 | 146.78461 | 35827 ft | 442 kts | 245° |
| 2026-05-04 10:06 | -36.85854 | 146.75273 | 35174 ft | 441 kts | 246° |
| 2026-05-04 10:08 | -36.96151 | 146.55970 | 30631 ft | 449 kts | 247° |
| 2026-05-04 10:08 | -36.97891 | 146.52711 | 30034 ft | 451 kts | 247° |
| 2026-05-04 10:08 | -36.99630 | 146.49456 | 29413 ft | 448 kts | 247° |
| 2026-05-04 10:08 | -37.01357 | 146.46231 | 28816 ft | 444 kts | 247° |
| 2026-05-04 10:09 | -37.03065 | 146.43035 | 28242 ft | 440 kts | 247° |
| 2026-05-04 10:09 | -37.04754 | 146.39869 | 27656 ft | 436 kts | 246° |
| 2026-05-04 10:09 | -37.06426 | 146.36725 | 27102 ft | 432 kts | 246° |
| 2026-05-04 10:09 | -37.08082 | 146.33598 | 26526 ft | 430 kts | 246° |
| 2026-05-04 10:10 | -37.09727 | 146.30486 | 25985 ft | 427 kts | 245° |
| 2026-05-04 10:10 | -37.11360 | 146.27404 | 25525 ft | 420 kts | 245° |
| 2026-05-04 10:10 | -37.13022 | 146.24446 | 25263 ft | 414 kts | 238° |
| 2026-05-04 10:10 | -37.15156 | 146.22034 | 25040 ft | 416 kts | 222° |
| 2026-05-04 10:11 | -37.17679 | 146.20272 | 24815 ft | 414 kts | 213° |
| 2026-05-04 10:11 | -37.20318 | 146.18903 | 24588 ft | 407 kts | 208° |
| 2026-05-04 10:11 | -37.22960 | 146.17733 | 24369 ft | 399 kts | 206° |
| 2026-05-04 10:11 | -37.25578 | 146.16695 | 24135 ft | 390 kts | 204° |
| 2026-05-04 10:12 | -37.28164 | 146.15766 | 23912 ft | 382 kts | 203° |
| 2026-05-04 10:12 | -37.30690 | 146.14877 | 23667 ft | 373 kts | 203° |
| 2026-05-04 10:12 | -37.33168 | 146.14000 | 23433 ft | 368 kts | 203° |
| 2026-05-04 10:12 | -37.35620 | 146.13123 | 23111 ft | 366 kts | 203° |
| 2026-05-04 10:13 | -37.38060 | 146.12245 | 22719 ft | 363 kts | 202° |
| 2026-05-04 10:13 | -37.40456 | 146.11358 | 22316 ft | 357 kts | 203° |
| 2026-05-04 10:13 | -37.42837 | 146.10465 | 21721 ft | 355 kts | 203° |
| 2026-05-04 10:13 | -37.45197 | 146.09574 | 21062 ft | 353 kts | 202° |
| 2026-05-04 10:14 | -37.47539 | 146.08688 | 20436 ft | 350 kts | 203° |
| 2026-05-04 10:14 | -37.49862 | 146.07813 | 19817 ft | 347 kts | 203° |
| 2026-05-04 10:16 | -37.65537 | 146.02065 | 15378 ft | 321 kts | 204° |
| 2026-05-04 10:16 | -37.67675 | 146.01327 | 14770 ft | 317 kts | 203° |
| 2026-05-04 10:16 | -37.69795 | 146.00609 | 14161 ft | 314 kts | 203° |
| 2026-05-04 10:16 | -37.71860 | 145.99901 | 13548 ft | 310 kts | 204° |
| 2026-05-04 10:17 | -37.73936 | 145.99200 | 13096 ft | 308 kts | 203° |
| 2026-05-04 10:17 | -37.75915 | 145.98243 | 12959 ft | 301 kts | 216° |
| 2026-05-04 10:19 | -37.73838 | 145.86083 | 12618 ft | 327 kts | 347° |
| 2026-05-04 10:19 | -37.71535 | 145.85542 | 12344 ft | 337 kts | 345° |
| 2026-05-04 10:19 | -37.69253 | 145.84859 | 11466 ft | 339 kts | 342° |
| 2026-05-04 10:19 | -37.67012 | 145.84001 | 10989 ft | 331 kts | 339° |
| 2026-05-04 10:20 | -37.64900 | 145.83040 | 10746 ft | 314 kts | 336° |
| 2026-05-04 10:20 | -37.62931 | 145.82009 | 10438 ft | 299 kts | 334° |
| 2026-05-04 10:20 | -37.61103 | 145.80901 | 10208 ft | 284 kts | 331° |
| 2026-05-04 10:20 | -37.59457 | 145.79644 | 9996 ft | 270 kts | 323° |
| 2026-05-04 10:21 | -37.58119 | 145.78080 | 9730 ft | 256 kts | 310° |
| 2026-05-04 10:21 | -37.57195 | 145.76181 | 9250 ft | 256 kts | 294° |
| 2026-05-04 10:21 | -37.56787 | 145.73992 | 9014 ft | 258 kts | 282° |
| 2026-05-04 10:21 | -37.56263 | 145.71856 | 8997 ft | 255 kts | 296° |
| 2026-05-04 10:22 | -37.55052 | 145.67651 | 8994 ft | 256 kts | 290° |
| 2026-05-04 10:22 | -37.54592 | 145.65482 | 8996 ft | 257 kts | 287° |
| 2026-05-04 10:22 | -37.54242 | 145.63275 | 9002 ft | 257 kts | 284° |
| 2026-05-04 10:23 | -37.53993 | 145.61046 | 9000 ft | 256 kts | 281° |
| 2026-05-04 10:23 | -37.53880 | 145.58802 | 9002 ft | 258 kts | 276° |
| 2026-05-04 10:25 | -37.56641 | 145.43281 | 9001 ft | 271 kts | 240° |
| 2026-05-04 10:25 | -37.57786 | 145.41401 | 8995 ft | 270 kts | 239° |
| 2026-05-04 10:25 | -37.58925 | 145.39527 | 8998 ft | 270 kts | 240° |
| 2026-05-04 10:25 | -37.60053 | 145.37635 | 8996 ft | 269 kts | 240° |
| 2026-05-04 10:26 | -37.61158 | 145.35758 | 8911 ft | 261 kts | 241° |
| 2026-05-04 10:26 | -37.62213 | 145.33966 | 8775 ft | 248 kts | 241° |
| 2026-05-04 10:26 | -37.63217 | 145.32258 | 8622 ft | 237 kts | 242° |
| 2026-05-04 10:26 | -37.64176 | 145.30620 | 8387 ft | 228 kts | 242° |
| 2026-05-04 10:27 | -37.65102 | 145.29030 | 8134 ft | 222 kts | 242° |
| 2026-05-04 10:27 | -37.66011 | 145.27460 | 7872 ft | 222 kts | 243° |
| 2026-05-04 10:27 | -37.66914 | 145.25890 | 7626 ft | 221 kts | 242° |
| 2026-05-04 10:27 | -37.67814 | 145.24327 | 7388 ft | 219 kts | 242° |
| 2026-05-04 10:28 | -37.68704 | 145.22783 | 7144 ft | 217 kts | 242° |
| 2026-05-04 10:28 | -37.69587 | 145.21250 | 6891 ft | 215 kts | 242° |
| 2026-05-04 10:28 | -37.70467 | 145.19730 | 6648 ft | 214 kts | 242° |
| 2026-05-04 10:28 | -37.71340 | 145.18211 | 6405 ft | 213 kts | 242° |
| 2026-05-04 10:29 | -37.72197 | 145.16719 | 6151 ft | 212 kts | 242° |
| 2026-05-04 10:29 | -37.73055 | 145.15222 | 5934 ft | 210 kts | 242° |
| 2026-05-04 10:29 | -37.73908 | 145.13732 | 5681 ft | 209 kts | 243° |
| 2026-05-04 10:29 | -37.74759 | 145.12244 | 5473 ft | 209 kts | 242° |
| 2026-05-04 10:30 | -37.75611 | 145.10754 | 5339 ft | 209 kts | 242° |
| 2026-05-04 10:30 | -37.76463 | 145.09269 | 5214 ft | 208 kts | 242° |
| 2026-05-04 10:30 | -37.77318 | 145.07792 | 5087 ft | 208 kts | 242° |
| 2026-05-04 10:30 | -37.78163 | 145.06313 | 4991 ft | 208 kts | 243° |
| 2026-05-04 10:31 | -37.79013 | 145.04819 | 4985 ft | 215 kts | 243° |
| 2026-05-04 10:31 | -37.79906 | 145.03233 | 4971 ft | 226 kts | 242° |
| 2026-05-04 10:32 | -37.82691 | 144.92541 | 5003 ft | 185 kts | 265° |
| 2026-05-04 10:33 | -37.82876 | 144.91007 | 5009 ft | 170 kts | 266° |
| 2026-05-04 10:33 | -37.83033 | 144.89533 | 4993 ft | 169 kts | 269° |
| 2026-05-04 10:33 | -37.83123 | 144.88049 | 4988 ft | 170 kts | 270° |
| 2026-05-04 10:33 | -37.83226 | 144.86566 | 4984 ft | 169 kts | 269° |
| 2026-05-04 10:34 | -37.83324 | 144.85091 | 4984 ft | 168 kts | 269° |
| 2026-05-04 10:34 | -37.83423 | 144.83615 | 4985 ft | 168 kts | 269° |
| 2026-05-04 10:34 | -37.83522 | 144.82138 | 4984 ft | 169 kts | 269° |
| 2026-05-04 10:34 | -37.83625 | 144.80657 | 4984 ft | 169 kts | 269° |
| 2026-05-04 10:35 | -37.83731 | 144.79172 | 4983 ft | 169 kts | 269° |
| 2026-05-04 10:35 | -37.83946 | 144.77700 | 4968 ft | 176 kts | 252° |
| 2026-05-04 10:35 | -37.84791 | 144.76530 | 4984 ft | 188 kts | 221° |
| 2026-05-04 10:35 | -37.85970 | 144.75779 | 4984 ft | 191 kts | 214° |
| 2026-05-04 10:36 | -37.87197 | 144.75130 | 4978 ft | 191 kts | 213° |
| 2026-05-04 10:36 | -37.88420 | 144.74497 | 4974 ft | 189 kts | 213° |
| 2026-05-04 10:36 | -37.89619 | 144.73878 | 4973 ft | 188 kts | 213° |
| 2026-05-04 10:36 | -37.90835 | 144.73254 | 4974 ft | 189 kts | 213° |
| 2026-05-04 10:37 | -37.92056 | 144.72634 | 4972 ft | 191 kts | 213° |
| 2026-05-04 10:37 | -37.93389 | 144.71924 | 4960 ft | 221 kts | 213° |
| 2026-05-04 10:37 | -37.94828 | 144.71126 | 4940 ft | 234 kts | 213° |
| 2026-05-04 10:37 | -37.96333 | 144.70280 | 4940 ft | 238 kts | 213° |
| 2026-05-04 10:39 | -38.05786 | 144.68874 | 4960 ft | 275 kts | 138° |
| 2026-05-04 10:39 | -38.06782 | 144.70927 | 4960 ft | 281 kts | 112° |
| 2026-05-04 10:39 | -38.07160 | 144.73362 | 4958 ft | 282 kts | 96° |
| 2026-05-04 10:40 | -38.07280 | 144.75839 | 4951 ft | 280 kts | 93° |
| 2026-05-04 10:40 | -38.07375 | 144.78303 | 4951 ft | 279 kts | 93° |
| 2026-05-04 10:40 | -38.07475 | 144.80759 | 4950 ft | 279 kts | 93° |
| 2026-05-04 10:40 | -38.07574 | 144.83212 | 4948 ft | 278 kts | 93° |
| 2026-05-04 10:41 | -38.07675 | 144.85669 | 4945 ft | 278 kts | 93° |
| 2026-05-04 10:41 | -38.07777 | 144.88120 | 4941 ft | 278 kts | 93° |
| 2026-05-04 10:41 | -38.07844 | 144.89741 | 4941 ft | 278 kts | 93° |
| 2026-05-04 10:41 | -38.07946 | 144.92193 | 4938 ft | 278 kts | 93° |
| 2026-05-04 10:42 | -38.08047 | 144.94645 | 4944 ft | 279 kts | 93° |
| 2026-05-04 10:42 | -38.08148 | 144.97103 | 4947 ft | 279 kts | 93° |
| 2026-05-04 10:42 | -38.08250 | 144.99557 | 4948 ft | 278 kts | 93° |
| 2026-05-04 10:42 | -38.08345 | 145.02009 | 4949 ft | 278 kts | 90° |
| 2026-05-04 10:43 | -38.08031 | 145.04395 | 4947 ft | 273 kts | 64° |
| 2026-05-04 10:44 | -37.97729 | 145.06145 | 4948 ft | 227 kts | 343° |
| 2026-05-04 10:45 | -37.96183 | 145.05725 | 4962 ft | 227 kts | 343° |
| 2026-05-04 10:45 | -37.94633 | 145.05306 | 4964 ft | 228 kts | 343° |
| 2026-05-04 10:45 | -37.93082 | 145.04890 | 4965 ft | 227 kts | 343° |
| 2026-05-04 10:45 | -37.91617 | 145.04228 | 4963 ft | 222 kts | 323° |
| 2026-05-04 10:46 | -37.90533 | 145.02885 | 4975 ft | 217 kts | 306° |
| 2026-05-04 10:46 | -37.89673 | 145.01333 | 4973 ft | 213 kts | 303° |
| 2026-05-04 10:46 | -37.88882 | 144.99835 | 4978 ft | 196 kts | 303° |
| 2026-05-04 10:46 | -37.88147 | 144.98486 | 4982 ft | 177 kts | 303° |
| 2026-05-04 10:47 | -37.87458 | 144.97240 | 4774 ft | 170 kts | 303° |
| 2026-05-04 10:47 | -37.86776 | 144.96019 | 4442 ft | 169 kts | 303° |
| 2026-05-04 10:47 | -37.86099 | 144.94812 | 4153 ft | 168 kts | 303° |
| 2026-05-04 10:47 | -37.85431 | 144.93615 | 3863 ft | 165 kts | 303° |
| 2026-05-04 10:49 | -37.80273 | 144.86366 | 2489 ft | 173 kts | 341° |
| 2026-05-04 10:49 | -37.79074 | 144.86113 | 2457 ft | 176 kts | 345° |
| 2026-05-04 10:50 | -37.77889 | 144.85867 | 2223 ft | 166 kts | 342° |
| 2026-05-04 10:51 | -37.71424 | 144.84637 | 973 ft | 126 kts | 354° |
| 2026-05-04 10:52 | -37.70554 | 144.84475 | 816 ft | 126 kts | 354° |
| 2026-05-04 10:52 | -37.69682 | 144.84312 | 653 ft | 127 kts | 354° |
| 2026-05-04 10:52 | -37.68823 | 144.84149 | 485 ft | 123 kts | 354° |
| 2026-05-04 10:54 | -37.66508 | 144.83895 | 394 ft | 0 kts | 89° |
| 2026-05-04 10:58 | -37.66511 | 144.83975 | 390 ft | 18 kts | 95° |
| 2026-05-04 10:58 | -37.66512 | 144.84000 | 389 ft | 0 kts | 95° |
| 2026-05-04 10:59 | -37.66513 | 144.84008 | 388 ft | 5 kts | 96° |
| 2026-05-04 10:59 | -37.66534 | 144.84095 | 384 ft | 16 kts | 118° |
| 2026-05-04 10:59 | -37.66625 | 144.84163 | 381 ft | 6 kts | 167° |
| 2026-05-04 11:00 | -37.66627 | 144.84163 | 381 ft | 1 kts | 163° |
| 2026-05-04 11:01 | -37.66699 | 144.84433 | 373 ft | 8 kts | 138° |
| 2026-05-04 11:02 | -37.66709 | 144.84440 | 369 ft | 3 kts | 156° |
| 2026-05-04 11:02 | -37.66739 | 144.84448 | 370 ft | 6 kts | 169° |
| 2026-05-04 11:05 | -37.66771 | 144.84455 | 373 ft | 0 kts | 170° |